Time;durP1;ratioP1;P1;durP2;ratioP2;P2;SDS_P1;SDS_P2;PMS_P1;PMS_P2;Temp;Humidity;BMP_temperature;BMP_pressure;BME280_temperature;BME280_humidity;BME280_pressure;Samples;Min_cycle;Max_cycle;Signal;HPM_P1;HPM_P2
2022/01/09 00:00:25;;;;;;;1.80;1.17;;;;;;;2.51;88.57;97152.72;5061606;28;20024;-87
2022/01/09 00:02:51;;;;;;;1.85;0.55;;;;;;;2.46;88.76;97150.88;5041910;28;20047;-86
2022/01/09 00:05:17;;;;;;;2.08;1.05;;;;;;;2.58;88.08;97147.84;5060917;28;20025;-86
2022/01/09 00:07:43;;;;;;;1.00;0.60;;;;;;;2.45;88.93;97142.00;5042154;28;20126;-86
2022/01/09 00:10:10;;;;;;;1.35;0.60;;;;;;;2.53;88.77;97143.28;5061572;28;20040;-87
2022/01/09 00:15:58;;;;;;;0.93;0.50;;;;;;;2.59;88.72;97137.88;5054116;28;20055;-85
2022/01/09 00:18:23;;;;;;;1.98;0.60;;;;;;;2.63;87.92;97123.59;5062113;28;20475;-86
2022/01/09 00:20:49;;;;;;;1.50;0.60;;;;;;;2.71;88.43;97137.53;5061991;28;20166;-86
2022/01/09 00:23:14;;;;;;;2.30;0.55;;;;;;;2.57;88.42;97124.72;5041850;28;20075;-86
2022/01/09 00:25:39;;;;;;;1.30;0.82;;;;;;;2.63;88.40;97134.38;5043242;28;20057;-87
2022/01/09 00:28:05;;;;;;;0.80;0.50;;;;;;;2.67;87.91;97119.28;5061208;28;20048;-86
2022/01/09 00:30:30;;;;;;;0.87;0.50;;;;;;;2.67;88.15;97124.66;5042093;28;20052;-86
2022/01/09 00:32:55;;;;;;;1.48;0.57;;;;;;;2.71;87.89;97124.09;5061271;28;20284;-86
2022/01/09 00:35:21;;;;;;;0.55;0.40;;;;;;;2.83;88.28;97121.88;5043532;28;20256;-86
2022/01/09 00:37:46;;;;;;;1.23;0.57;;;;;;;2.83;88.05;97121.09;5060908;28;20483;-86
2022/01/09 00:40:13;;;;;;;1.88;0.57;;;;;;;2.88;87.94;97124.53;5062359;28;20301;-86
2022/01/09 00:42:38;;;;;;;1.60;0.50;;;;;;;2.84;87.39;97117.28;5060144;28;20153;-86
2022/01/09 00:45:05;;;;;;;1.20;0.32;;;;;;;2.92;88.25;97122.09;5062198;28;20575;-86
2022/01/09 00:47:30;;;;;;;1.23;0.63;;;;;;;2.82;87.15;97109.50;5061107;28;20120;-86
2022/01/09 00:49:55;;;;;;;1.25;0.40;;;;;;;2.98;87.33;97101.31;5060674;28;20206;-86
2022/01/09 00:55:06;;;;;;;0.70;0.52;;;;;;;2.96;88.52;97109.69;5059260;28;20078;-86
2022/01/09 00:57:31;;;;;;;2.47;0.38;;;;;;;3.01;87.89;97100.78;5063838;28;20055;-87
2022/01/09 00:59:56;;;;;;;0.88;0.40;;;;;;;3.05;88.09;97096.44;5063221;28;20668;-86
2022/01/09 01:02:22;;;;;;;0.70;0.40;;;;;;;2.95;88.16;97102.69;5063035;28;20024;-86
2022/01/09 01:04:50;;;;;;;0.82;0.40;;;;;;;3.07;87.65;97098.84;5063094;28;20039;-87
2022/01/09 01:07:16;;;;;;;0.77;0.40;;;;;;;3.03;88.11;97093.22;5043590;28;20034;-86
2022/01/09 01:09:41;;;;;;;1.33;0.32;;;;;;;3.04;88.53;97094.81;5063237;28;20029;-86
2022/01/09 01:12:07;;;;;;;0.65;0.30;;;;;;;3.13;88.15;97092.34;5061675;28;20024;-86
2022/01/09 01:14:33;;;;;;;0.88;0.20;;;;;;;3.08;87.55;97089.66;5061909;28;20036;-85
2022/01/09 01:16:59;;;;;;;0.90;0.50;;;;;;;3.18;88.17;97099.56;5061308;28;20027;-86
2022/01/09 01:19:25;;;;;;;0.95;0.32;;;;;;;3.17;87.89;97097.97;5062007;28;20020;-86
2022/01/09 01:21:51;;;;;;;1.95;0.57;;;;;;;3.08;88.14;97097.75;5062596;28;20099;-87
2022/01/09 01:24:18;;;;;;;0.73;0.30;;;;;;;3.21;88.13;97099.00;5062809;28;20028;-86
2022/01/09 01:26:43;;;;;;;0.95;0.40;;;;;;;3.13;88.28;97087.72;5062277;28;20036;-86
2022/01/09 01:29:10;;;;;;;0.68;0.40;;;;;;;2.98;88.78;97098.63;5062287;28;20495;-86
2022/01/09 01:31:35;;;;;;;0.55;0.25;;;;;;;3.12;88.11;97090.72;5061571;28;20076;-86
2022/01/09 01:34:00;;;;;;;0.30;0.10;;;;;;;3.11;88.57;97095.28;5063134;28;20111;-86
2022/01/09 01:36:26;;;;;;;0.57;0.30;;;;;;;3.06;88.56;97108.81;5063652;28;20032;-86
2022/01/09 01:38:51;;;;;;;1.08;0.35;;;;;;;3.10;88.28;97109.84;5062609;28;20036;-86
2022/01/09 01:41:16;;;;;;;1.45;0.40;;;;;;;3.08;88.22;97105.81;5063790;28;20028;-86
2022/01/09 01:43:42;;;;;;;1.15;0.30;;;;;;;3.09;88.80;97112.84;5062642;28;20020;-86
2022/01/09 01:46:07;;;;;;;0.47;0.10;;;;;;;3.11;88.34;97110.66;5063802;28;20502;-87
2022/01/09 01:48:32;;;;;;;0.60;0.30;;;;;;;3.07;88.72;97102.31;5063270;28;20020;-86
2022/01/09 01:50:58;;;;;;;0.68;0.20;;;;;;;3.18;88.15;97110.31;5062515;28;20265;-86
2022/01/09 01:53:24;;;;;;;0.35;0.20;;;;;;;3.06;88.63;97103.41;5065568;28;20032;-86
2022/01/09 01:55:54;;;;;;;0.68;0.32;;;;;;;3.04;88.68;97113.66;5046773;28;20028;-86
2022/01/09 01:58:20;;;;;;;0.85;0.30;;;;;;;3.13;88.67;97111.97;5066483;28;20031;-86
2022/01/09 02:00:46;;;;;;;4.75;0.55;;;;;;;3.17;88.65;97122.19;5066570;28;20028;-86
2022/01/09 02:03:11;;;;;;;0.70;0.32;;;;;;;2.97;89.09;97121.25;5067446;28;20023;-85
2022/01/09 02:05:37;;;;;;;1.02;0.30;;;;;;;3.02;89.57;97123.91;5067390;28;20108;-86
2022/01/09 02:08:04;;;;;;;0.85;0.57;;;;;;;2.95;89.88;97124.22;5067251;28;20700;-87
2022/01/09 02:10:30;;;;;;;0.68;0.30;;;;;;;2.97;89.66;97132.03;5066748;28;20410;-86
2022/01/09 02:12:57;;;;;;;0.88;0.28;;;;;;;3.07;89.55;97131.16;5067122;28;20152;-87
2022/01/09 02:15:33;;;;;;;2.53;0.40;;;;;;;3.03;89.83;97130.91;5066474;28;20032;-86
2022/01/09 02:18:20;;;;;;;1.67;0.70;;;;;;;3.04;89.79;97137.88;5067144;28;20078;-86
2022/01/09 02:20:46;;;;;;;1.65;0.50;;;;;;;3.06;90.05;97135.72;5048709;28;20111;-85
2022/01/09 02:26:18;;;;;;;1.10;0.50;;;;;;;3.03;89.89;97152.44;5062589;28;20075;-87
2022/01/09 02:28:44;;;;;;;1.00;0.20;;;;;;;2.94;90.42;97167.56;5066023;28;20055;-85
2022/01/09 02:31:09;;;;;;;0.52;0.38;;;;;;;2.99;90.17;97171.03;5066255;28;20080;-86
2022/01/09 02:33:35;;;;;;;1.85;0.32;;;;;;;3.02;90.15;97186.63;5066098;28;20032;-86
2022/01/09 02:36:01;;;;;;;2.83;0.50;;;;;;;3.11;90.26;97186.84;5067026;28;20025;-86
2022/01/09 02:38:26;;;;;;;2.72;0.35;;;;;;;3.09;89.96;97193.59;5066181;28;20012;-86
2022/01/09 02:40:54;;;;;;;1.10;0.30;;;;;;;3.17;90.53;97208.34;5067064;28;20028;-86
2022/01/09 02:43:20;;;;;;;2.22;0.85;;;;;;;3.26;90.23;97212.88;5065466;28;20024;-86
2022/01/09 02:45:51;;;;;;;2.15;0.30;;;;;;;3.18;90.71;97212.66;5066052;28;20114;-86
2022/01/09 02:48:17;;;;;;;0.60;0.43;;;;;;;3.28;90.17;97217.97;5066126;28;20475;-87
2022/01/09 02:50:54;;;;;;;1.15;0.50;;;;;;;3.24;90.58;97233.88;5065624;28;20087;-86
2022/01/09 02:53:21;;;;;;;0.68;0.40;;;;;;;3.32;90.04;97234.38;5066363;28;20090;-86
2022/01/09 02:55:47;;;;;;;1.08;0.30;;;;;;;3.30;90.12;97231.97;5066130;28;20028;-86
2022/01/09 02:58:13;;;;;;;0.52;0.20;;;;;;;3.44;89.98;97236.75;5065449;28;20024;-85
2022/01/09 03:00:42;;;;;;;1.35;0.40;;;;;;;3.62;89.16;97244.13;5065685;28;20047;-87
2022/01/09 03:03:07;;;;;;;1.27;0.70;;;;;;;3.79;88.77;97251.03;5065871;28;20029;-86
2022/01/09 03:05:33;;;;;;;0.73;0.43;;;;;;;3.98;88.24;97255.75;5065709;28;20020;-86
2022/01/09 03:07:59;;;;;;;1.77;0.80;;;;;;;3.95;89.17;97259.78;5066610;28;20032;-85
2022/01/09 03:10:25;;;;;;;0.90;0.60;;;;;;;3.92;88.91;97276.56;5065004;28;20101;-85
2022/01/09 03:12:52;;;;;;;1.17;0.52;;;;;;;3.96;88.09;97274.09;5065655;28;20123;-86
2022/01/09 03:15:17;;;;;;;1.80;0.88;;;;;;;3.44;89.38;97296.00;5066329;28;20964;-86
2022/01/09 03:17:43;;;;;;;1.92;0.80;;;;;;;3.97;88.20;97292.66;5065235;28;20039;-87
2022/01/09 03:20:25;;;;;;;1.85;1.08;;;;;;;3.65;88.95;97296.69;5046850;28;20380;-85
2022/01/09 03:22:51;;;;;;;2.60;1.25;;;;;;;3.49;89.20;97304.06;5065371;28;20070;-85
2022/01/09 03:25:17;;;;;;;3.33;1.23;;;;;;;3.52;89.09;97305.41;5065724;28;20043;-86
2022/01/09 03:27:45;;;;;;;4.90;2.25;;;;;;;3.56;89.80;97320.72;5077014;28;20554;-85
2022/01/09 03:30:11;;;;;;;3.10;1.45;;;;;;;3.64;90.33;97316.63;5065626;28;20044;-85
2022/01/09 03:32:38;;;;;;;3.47;1.50;;;;;;;3.68;89.54;97333.06;5076901;28;20044;-86
2022/01/09 03:35:05;;;;;;;4.45;1.23;;;;;;;3.70;90.46;97341.66;5064773;28;20436;-86
2022/01/09 03:37:30;;;;;;;3.65;1.63;;;;;;;3.88;89.54;97347.47;5064056;28;20040;-86
2022/01/09 03:39:56;;;;;;;3.55;1.48;;;;;;;3.99;88.77;97348.22;5065137;28;20028;-86
2022/01/09 03:42:21;;;;;;;2.92;1.92;;;;;;;3.51;90.62;97350.38;5065063;28;20726;-87
2022/01/09 03:44:46;;;;;;;2.60;1.20;;;;;;;3.87;89.99;97341.28;5045428;28;21353;-86
2022/01/09 03:50:16;;;;;;;3.30;1.50;;;;;;;3.92;89.43;97367.41;5055847;28;20074;-86
2022/01/09 03:52:42;;;;;;;4.70;1.17;;;;;;;3.84;90.43;97372.28;5064713;28;20037;-86
2022/01/09 03:55:10;;;;;;;5.00;1.48;;;;;;;3.71;90.98;97375.59;5064912;28;20039;-86
2022/01/09 03:57:35;;;;;;;4.43;1.20;;;;;;;3.87;90.61;97383.59;5064776;28;20456;-86
2022/01/09 04:00:01;;;;;;;3.95;0.77;;;;;;;3.77;90.69;97401.44;5064743;28;20024;-86
2022/01/09 04:02:26;;;;;;;2.33;1.20;;;;;;;3.99;89.86;97394.84;5065200;28;20029;-86
2022/01/09 04:04:51;;;;;;;2.88;0.90;;;;;;;4.14;89.28;97414.72;5045705;28;20028;-87
2022/01/09 04:07:17;;;;;;;3.13;1.02;;;;;;;3.86;89.57;97425.94;5064418;28;20403;-86
2022/01/09 04:09:45;;;;;;;11.02;1.38;;;;;;;3.70;90.97;97444.09;5064664;28;20036;-86
2022/01/09 04:12:17;;;;;;;1.35;0.57;;;;;;;3.68;91.12;97424.69;5063938;28;20086;-86
2022/01/09 04:14:48;;;;;;;1.90;0.40;;;;;;;3.80;91.03;97444.03;5045358;28;20036;-86
2022/01/09 04:17:23;;;;;;;4.38;1.55;;;;;;;3.93;90.26;97452.59;5063979;28;20040;-86
2022/01/09 04:19:49;;;;;;;2.72;1.33;;;;;;;3.82;90.20;97447.25;5064785;28;20035;-86
2022/01/09 04:22:14;;;;;;;4.80;0.82;;;;;;;3.93;89.22;97457.97;5064209;28;20024;-86
2022/01/09 04:24:39;;;;;;;2.70;1.15;;;;;;;3.87;89.96;97462.59;5064792;28;20032;-85
2022/01/09 04:27:05;;;;;;;1.80;0.93;;;;;;;3.90;90.42;97475.53;5064374;28;20376;-86
2022/01/09 04:29:30;;;;;;;1.98;0.70;;;;;;;4.10;89.50;97490.00;5075300;28;20414;-85
2022/01/09 04:31:56;;;;;;;4.15;1.27;;;;;;;4.15;89.45;97487.25;5063676;28;20052;-86
2022/01/09 04:34:21;;;;;;;3.28;1.30;;;;;;;4.12;89.21;97495.09;5063223;28;20028;-86
2022/01/09 04:36:46;;;;;;;4.75;1.45;;;;;;;4.46;88.57;97504.34;5064505;28;20025;-86
2022/01/09 04:39:12;;;;;;;4.05;1.50;;;;;;;4.30;88.84;97510.66;5063920;28;20089;-86
2022/01/09 04:41:49;;;;;;;2.65;0.98;;;;;;;4.30;88.90;97513.34;5064101;28;20537;-86
2022/01/09 04:44:14;;;;;;;2.30;1.00;;;;;;;4.31;88.75;97519.56;5063420;28;20123;-86
2022/01/09 04:46:47;;;;;;;1.77;0.63;;;;;;;4.37;88.99;97523.03;5046423;28;20045;-86
2022/01/09 04:49:12;;;;;;;6.75;0.80;;;;;;;4.22;89.60;97538.22;5045497;28;20590;-87
2022/01/09 04:51:37;;;;;;;14.50;1.88;;;;;;;4.02;90.54;97545.31;5063358;28;20021;-86
2022/01/09 04:54:04;;;;;;;6.88;1.63;;;;;;;4.34;89.11;97548.66;5063384;28;20035;-85
2022/01/09 04:56:30;;;;;;;14.02;3.00;;;;;;;4.20;90.23;97543.06;5063676;28;20024;-86
2022/01/09 04:58:55;;;;;;;7.60;2.25;;;;;;;4.34;89.58;97547.84;5063404;28;20047;-86
2022/01/09 05:01:21;;;;;;;14.15;3.70;;;;;;;4.09;91.55;97558.47;5062818;28;20021;-86
2022/01/09 05:03:46;;;;;;;18.02;5.30;;;;;;;4.15;91.56;97560.06;5063398;28;20032;-85
2022/01/09 05:06:14;;;;;;;20.02;4.10;;;;;;;4.23;91.73;97558.69;5063909;28;20089;-85
2022/01/09 05:08:39;;;;;;;15.82;3.75;;;;;;;4.01;92.50;97567.16;5063833;28;20033;-86
2022/01/09 05:11:04;;;;;;;16.13;4.93;;;;;;;4.38;91.29;97584.00;5046043;28;20303;-86
2022/01/09 05:13:30;;;;;;;16.30;4.90;;;;;;;4.18;91.88;97597.31;5044937;28;20039;-86
2022/01/09 05:15:55;;;;;;;26.90;5.75;;;;;;;4.54;90.58;97609.00;5045452;28;20174;-86
2022/01/09 05:18:41;;;;;;;21.88;7.65;;;;;;;4.26;92.25;97609.41;5063827;28;20063;-86
2022/01/09 05:21:08;;;;;;;19.37;6.77;;;;;;;4.46;92.20;97621.19;5064266;28;20487;-86
2022/01/09 05:23:33;;;;;;;31.08;8.35;;;;;;;4.64;90.69;97610.84;5063165;28;20445;-86
2022/01/09 05:25:59;;;;;;;22.33;6.28;;;;;;;4.56;90.71;97628.44;5064156;28;20020;-87
2022/01/09 05:28:24;;;;;;;30.63;8.55;;;;;;;4.51;91.76;97645.47;5067627;28;20020;-86
2022/01/09 05:30:50;;;;;;;18.30;7.68;;;;;;;4.36;92.51;97635.53;5065486;28;20492;-86
2022/01/09 05:33:16;;;;;;;13.57;5.82;;;;;;;4.41;91.44;97640.91;5067483;28;20024;-86
2022/01/09 05:35:41;;;;;;;27.67;8.02;;;;;;;4.58;90.95;97655.16;5049079;28;20480;-85
2022/01/09 05:38:06;;;;;;;18.10;6.28;;;;;;;4.49;90.55;97657.63;5067533;28;20056;-85
2022/01/09 05:40:32;;;;;;;25.15;7.57;;;;;;;4.55;91.24;97670.81;5066506;28;20115;-86
2022/01/09 05:42:57;;;;;;;26.63;9.50;;;;;;;4.45;91.65;97673.56;5067072;28;20063;-86
2022/01/09 05:45:22;;;;;;;34.33;8.65;;;;;;;4.40;92.28;97660.88;5049185;28;20036;-86
2022/01/09 05:47:48;;;;;;;26.23;5.68;;;;;;;4.52;91.48;97667.84;5067678;28;20654;-86
2022/01/09 05:50:13;;;;;;;13.77;5.15;;;;;;;4.30;91.42;97667.13;5067076;28;20020;-86
2022/01/09 05:52:38;;;;;;;19.10;6.15;;;;;;;4.38;91.21;97678.44;5046424;28;20258;-86
2022/01/09 05:55:04;;;;;;;18.63;5.47;;;;;;;4.38;92.10;97681.13;5063743;28;20037;-86
2022/01/09 05:57:29;;;;;;;23.40;7.60;;;;;;;4.49;91.95;97690.81;5066499;28;20024;-86
2022/01/09 05:59:55;;;;;;;25.25;7.20;;;;;;;4.40;92.12;97705.94;5068354;28;20554;-87
2022/01/09 06:02:20;;;;;;;46.10;8.18;;;;;;;4.41;91.77;97700.25;5064960;28;20112;-86
2022/01/09 06:04:45;;;;;;;29.00;8.13;;;;;;;4.48;91.14;97716.16;5067039;28;20029;-85
2022/01/09 06:07:11;;;;;;;18.47;6.80;;;;;;;4.29;91.50;97716.75;5066990;28;20028;-86
2022/01/09 06:09:36;;;;;;;24.42;6.82;;;;;;;4.02;92.96;97728.69;5066692;28;20272;-86
2022/01/09 06:12:02;;;;;;;17.17;7.15;;;;;;;4.17;93.43;97735.16;5049660;28;20579;-85
2022/01/09 06:14:27;;;;;;;21.80;5.57;;;;;;;4.14;92.15;97735.69;5065220;28;20028;-85
2022/01/09 06:16:52;;;;;;;25.42;7.78;;;;;;;4.20;91.55;97746.19;5067060;28;20024;-85
2022/01/09 06:19:18;;;;;;;18.13;5.22;;;;;;;4.49;91.34;97749.38;5066522;28;20498;-85
2022/01/09 06:21:43;;;;;;;21.92;6.63;;;;;;;4.31;91.60;97741.56;5066155;28;20024;-86
2022/01/09 06:24:08;;;;;;;17.48;5.55;;;;;;;4.22;92.09;97753.19;5066125;28;20096;-83
2022/01/09 06:26:34;;;;;;;15.18;5.35;;;;;;;4.50;90.68;97762.59;5066686;28;20027;-85
2022/01/09 06:28:59;;;;;;;23.20;5.15;;;;;;;4.23;91.40;97766.41;5065776;28;20043;-85
2022/01/09 06:31:24;;;;;;;15.48;6.05;;;;;;;4.25;91.60;97769.63;5065776;28;20048;-85
2022/01/09 06:33:50;;;;;;;18.23;6.13;;;;;;;4.13;91.10;97775.31;5066396;28;20420;-85
2022/01/09 06:36:28;;;;;;;21.60;5.53;;;;;;;4.32;90.55;97783.69;5046935;28;20032;-85
2022/01/09 06:38:53;;;;;;;17.80;5.03;;;;;;;4.35;89.94;97792.31;5065840;28;20016;-84
2022/01/09 06:41:18;;;;;;;19.13;6.40;;;;;;;4.37;90.87;97800.94;5067250;28;20881;-85
2022/01/09 06:43:44;;;;;;;18.37;6.53;;;;;;;4.31;90.31;97810.94;5065454;28;20029;-87
2022/01/09 06:46:10;;;;;;;14.02;4.63;;;;;;;4.21;91.05;97811.72;5066139;28;20367;-85
2022/01/09 06:48:35;;;;;;;15.15;5.15;;;;;;;4.03;91.11;97811.19;5066282;28;20021;-85
2022/01/09 06:51:00;;;;;;;21.42;6.95;;;;;;;4.43;90.51;97821.44;5038113;28;20119;-85
2022/01/09 06:53:26;;;;;;;12.53;5.27;;;;;;;4.04;91.41;97831.72;5042086;28;20067;-86
2022/01/09 06:55:51;;;;;;;11.15;4.50;;;;;;;4.24;90.33;97835.47;5065446;28;20315;-86
2022/01/09 06:58:18;;;;;;;14.90;5.18;;;;;;;4.65;89.31;97844.63;5065709;28;20579;-85
2022/01/09 07:00:45;;;;;;;11.40;4.00;;;;;;;4.58;89.00;97860.31;5043245;28;20408;-85
2022/01/09 07:03:11;;;;;;;17.52;5.82;;;;;;;4.49;88.50;97868.94;5057495;28;20032;-86
2022/01/09 07:05:36;;;;;;;8.77;3.50;;;;;;;4.28;89.20;97874.34;5064461;28;20036;-84
2022/01/09 07:08:02;;;;;;;12.98;3.78;;;;;;;4.13;89.47;97871.63;5065970;28;20063;-86
2022/01/09 07:10:27;;;;;;;16.63;5.53;;;;;;;3.90;90.01;97884.53;5039405;28;20025;-86
2022/01/09 07:12:52;;;;;;;13.57;3.25;;;;;;;3.96;90.24;97883.47;5065351;28;20534;-86
2022/01/09 07:15:18;;;;;;;13.70;2.57;;;;;;;3.80;90.48;97886.16;5065785;28;20020;-85
2022/01/09 07:17:43;;;;;;;16.00;4.22;;;;;;;3.94;89.88;97897.22;5046587;28;20271;-85
2022/01/09 07:20:09;;;;;;;28.17;5.13;;;;;;;3.90;89.43;97912.31;5064832;28;20035;-85
2022/01/09 07:22:34;;;;;;;12.38;3.45;;;;;;;3.83;89.83;97907.19;5065345;28;20082;-86
2022/01/09 07:25:00;;;;;;;11.52;3.08;;;;;;;3.88;89.61;97913.66;5065425;28;20429;-86
2022/01/09 07:27:25;;;;;;;12.88;4.55;;;;;;;4.29;88.75;97932.59;5065524;28;20029;-86
2022/01/09 07:29:50;;;;;;;20.67;4.35;;;;;;;4.11;89.19;97931.22;5047408;28;20033;-86
2022/01/09 07:32:16;;;;;;;17.05;4.18;;;;;;;4.14;88.93;97932.59;5047301;28;20063;-86
2022/01/09 07:34:41;;;;;;;19.40;4.85;;;;;;;4.25;88.70;97934.22;5065083;28;20032;-85
2022/01/09 07:37:06;;;;;;;13.38;4.28;;;;;;;4.01;89.52;97944.72;5065506;28;20021;-86
2022/01/09 07:39:32;;;;;;;13.68;5.03;;;;;;;4.07;89.63;97949.00;5065626;28;20368;-86
2022/01/09 07:41:58;;;;;;;19.23;3.83;;;;;;;4.09;89.15;97955.78;5065117;28;20479;-86
2022/01/09 07:44:24;;;;;;;19.00;4.47;;;;;;;4.38;87.88;97953.66;5064365;28;20797;-85
2022/01/09 07:46:49;;;;;;;10.35;4.35;;;;;;;4.19;87.51;97973.06;5064808;28;20020;-85
2022/01/09 07:49:30;;;;;;;25.30;5.63;;;;;;;4.30;88.01;97976.59;5046180;28;20347;-86
2022/01/09 07:51:55;;;;;;;14.98;4.47;;;;;;;4.01;87.74;97983.25;5064204;28;20027;-85
2022/01/09 07:54:20;;;;;;;17.13;4.05;;;;;;;3.90;88.42;97987.00;5064797;28;20074;-86
2022/01/09 07:56:46;;;;;;;12.98;4.68;;;;;;;4.27;87.98;97993.31;5064267;28;20078;-85
2022/01/09 07:59:11;;;;;;;15.98;4.05;;;;;;;3.87;88.61;97999.13;5064257;28;20031;-86
2022/01/09 08:01:38;;;;;;;14.90;4.30;;;;;;;4.24;87.83;98004.63;5064909;28;20426;-86
2022/01/09 08:04:03;;;;;;;10.07;3.60;;;;;;;4.32;87.25;98009.50;5050330;28;20029;-86
2022/01/09 08:06:28;;;;;;;14.00;4.20;;;;;;;4.39;86.88;98015.47;5064270;28;20389;-85
2022/01/09 08:08:53;;;;;;;10.75;4.20;;;;;;;4.34;86.73;98015.44;5064665;28;20060;-85
2022/01/09 08:11:22;;;;;;;15.80;5.20;;;;;;;4.25;87.07;98019.75;5064054;28;20177;-85
2022/01/09 08:13:47;;;;;;;15.88;3.78;;;;;;;4.27;86.58;98028.41;5064376;28;20035;-85
2022/01/09 08:16:15;;;;;;;10.32;3.65;;;;;;;4.36;86.11;98032.19;5063867;28;20032;-84
2022/01/09 08:18:40;;;;;;;16.65;4.72;;;;;;;4.11;86.92;98030.22;5063050;28;20475;-85
2022/01/09 08:21:05;;;;;;;15.02;4.32;;;;;;;4.27;86.59;98050.78;5065187;28;20024;-85
2022/01/09 08:23:31;;;;;;;11.48;4.55;;;;;;;4.45;85.99;98035.19;5063880;28;20032;-85
2022/01/09 08:25:56;;;;;;;17.30;4.50;;;;;;;4.22;86.18;98042.66;5064907;28;20502;-85
2022/01/09 08:28:21;;;;;;;14.25;4.68;;;;;;;4.22;86.40;98042.66;5062944;28;20028;-86
2022/01/09 08:30:46;;;;;;;25.90;5.38;;;;;;;4.13;87.16;98046.97;5059655;28;20167;-85
2022/01/09 08:33:12;;;;;;;17.03;5.90;;;;;;;3.82;87.39;98056.53;5053572;28;20024;-85
2022/01/09 08:35:37;;;;;;;15.38;4.93;;;;;;;4.26;86.83;98059.13;5053752;28;20281;-85
2022/01/09 08:38:03;;;;;;;16.35;4.32;;;;;;;4.25;86.29;98066.41;5053672;28;20480;-85
2022/01/09 08:43:13;;;;;;;11.88;3.65;;;;;;;4.28;86.53;98071.28;5053037;28;20098;-86
2022/01/09 08:45:38;;;;;;;11.40;2.92;;;;;;;4.53;85.85;98068.94;5052534;28;20033;-86
2022/01/09 08:48:04;;;;;;;13.48;3.13;;;;;;;4.41;85.75;98082.66;5051863;28;20030;-85
2022/01/09 08:50:31;;;;;;;10.15;4.90;;;;;;;4.20;86.52;98077.19;5033942;28;20036;-85
2022/01/09 08:52:57;;;;;;;15.68;4.57;;;;;;;4.16;85.64;98086.88;5051129;28;20028;-85
2022/01/09 08:55:22;;;;;;;11.40;3.47;;;;;;;3.97;86.65;98095.44;5052186;28;20059;-86
2022/01/09 08:57:47;;;;;;;11.65;4.95;;;;;;;4.28;86.09;98084.78;5052048;28;20040;-85
2022/01/09 09:00:13;;;;;;;16.35;4.57;;;;;;;4.27;86.65;98099.34;5052102;28;20356;-85
2022/01/09 09:02:41;;;;;;;12.48;4.85;;;;;;;4.51;85.56;98104.28;5051213;28;20137;-85
2022/01/09 09:05:06;;;;;;;11.93;4.68;;;;;;;4.27;85.07;98107.44;5052328;28;20116;-85
2022/01/09 09:07:32;;;;;;;17.17;5.32;;;;;;;4.31;85.09;98116.63;5052733;28;20020;-85
2022/01/09 09:10:03;;;;;;;15.18;4.22;;;;;;;4.35;85.14;98111.53;5052661;28;20437;-85
2022/01/09 09:12:29;;;;;;;14.88;4.47;;;;;;;4.48;84.73;98123.69;5033715;28;20217;-85
2022/01/09 09:14:55;;;;;;;10.75;3.45;;;;;;;4.36;84.26;98120.41;5052219;28;20033;-85
2022/01/09 09:17:20;;;;;;;17.35;4.68;;;;;;;4.42;84.70;98127.47;5051155;28;20521;-85
2022/01/09 09:19:46;;;;;;;15.98;5.80;;;;;;;4.20;85.32;98123.06;5034622;28;20061;-85
2022/01/09 09:25:15;;;;;;;9.98;3.90;;;;;;;4.28;84.58;98138.75;5046250;28;20505;-85
2022/01/09 09:27:40;;;;;;;13.30;4.25;;;;;;;4.27;84.75;98145.19;5051460;28;20025;-84
2022/01/09 09:30:07;;;;;;;15.90;5.28;;;;;;;4.71;84.30;98143.22;5053207;28;20029;-85
2022/01/09 09:32:34;;;;;;;23.30;6.32;;;;;;;4.41;84.65;98158.22;5062124;28;20067;-86
2022/01/09 09:34:59;;;;;;;13.50;4.72;;;;;;;4.47;85.13;98162.56;5062638;28;20025;-85
2022/01/09 09:37:28;;;;;;;11.65;4.43;;;;;;;4.67;83.58;98150.22;5061800;28;20037;-85
2022/01/09 09:39:53;;;;;;;11.75;3.28;;;;;;;4.61;83.25;98162.09;5063879;28;20025;-84
2022/01/09 09:42:19;;;;;;;18.08;5.35;;;;;;;4.73;83.26;98170.75;5061801;28;20047;-84
2022/01/09 09:44:44;;;;;;;13.70;4.25;;;;;;;4.49;83.01;98173.91;5062882;28;20020;-85
2022/01/09 09:47:11;;;;;;;11.68;4.63;;;;;;;4.88;83.34;98174.59;5061664;28;20021;-85
2022/01/09 09:49:36;;;;;;;18.58;5.20;;;;;;;4.49;84.24;98186.59;5061586;28;20028;-85
2022/01/09 09:52:04;;;;;;;11.48;6.30;;;;;;;4.88;83.48;98178.09;5060348;28;20032;-86
2022/01/09 09:54:30;;;;;;;10.13;4.55;;;;;;;4.90;82.73;98181.34;5055793;28;20669;-84
2022/01/09 09:56:55;;;;;;;15.57;6.20;;;;;;;4.48;83.17;98185.78;5056562;28;20128;-85
2022/01/09 09:59:29;;;;;;;11.98;5.25;;;;;;;4.82;83.49;98189.94;5058186;28;20029;-84
2022/01/09 10:02:15;;;;;;;12.15;4.57;;;;;;;4.55;83.26;98197.16;5060490;28;20525;-85
2022/01/09 10:05:01;;;;;;;15.10;4.47;;;;;;;4.73;84.21;98192.38;5061053;28;20498;-85
2022/01/09 10:07:27;;;;;;;14.15;3.83;;;;;;;4.92;82.90;98193.78;5058617;28;20403;-85
2022/01/09 10:09:59;;;;;;;8.52;3.90;;;;;;;5.07;82.12;98201.91;5063342;28;20467;-85
2022/01/09 10:12:29;;;;;;;12.32;4.20;;;;;;;4.76;82.75;98202.63;5058442;28;20025;-85
2022/01/09 10:15:00;;;;;;;9.60;3.33;;;;;;;4.90;83.56;98207.56;5062814;28;20036;-85
2022/01/09 10:17:27;;;;;;;10.98;4.15;;;;;;;4.92;83.15;98208.09;5075584;28;20781;-85
2022/01/09 10:19:54;;;;;;;23.27;4.45;;;;;;;5.09;82.78;98215.13;5065268;28;20106;-84
2022/01/09 10:22:38;;;;;;;13.20;4.43;;;;;;;5.09;82.63;98223.25;5065540;28;20044;-85
2022/01/09 10:25:18;;;;;;;18.55;4.43;;;;;;;5.24;82.61;98219.78;5065271;28;20055;-85
2022/01/09 10:27:44;;;;;;;13.48;4.85;;;;;;;5.05;82.43;98227.56;5064306;28;20028;-83
2022/01/09 10:30:10;;;;;;;8.02;3.40;;;;;;;5.30;81.51;98231.41;5064980;28;20045;-83
2022/01/09 10:32:36;;;;;;;12.88;5.22;;;;;;;5.20;82.33;98234.91;5064650;28;20021;-85
2022/01/09 10:35:08;;;;;;;11.50;5.28;;;;;;;5.39;81.61;98237.09;5065160;28;20048;-84
2022/01/09 10:38:01;;;;;;;15.90;4.45;;;;;;;5.31;81.04;98239.25;5064406;28;20454;-85
2022/01/09 10:40:29;;;;;;;21.60;6.03;;;;;;;5.44;81.37;98243.34;5064123;28;20036;-83
2022/01/09 10:43:04;;;;;;;14.73;4.82;;;;;;;5.17;81.48;98243.53;5046425;28;20036;-84
2022/01/09 10:45:31;;;;;;;14.50;5.63;;;;;;;5.19;82.49;98234.09;5065047;28;20056;-84
2022/01/09 10:48:09;;;;;;;18.08;5.93;;;;;;;5.08;82.30;98246.78;5046896;28;20510;-85
2022/01/09 10:50:37;;;;;;;13.93;5.45;;;;;;;5.27;81.88;98259.78;5076278;28;20173;-85
2022/01/09 10:53:19;;;;;;;10.75;4.68;;;;;;;5.45;81.79;98265.78;5064740;28;20475;-85
2022/01/09 10:56:01;;;;;;;14.27;5.88;;;;;;;4.90;82.11;98264.25;5063605;28;20043;-84
2022/01/09 10:58:27;;;;;;;13.27;5.90;;;;;;;5.04;82.75;98264.59;5063241;28;20032;-85
2022/01/09 11:01:13;;;;;;;11.60;4.43;;;;;;;5.12;82.66;98271.38;5064934;28;20033;-85
2022/01/09 11:03:40;;;;;;;14.02;4.93;;;;;;;5.08;82.68;98276.50;5063036;28;20066;-85
2022/01/09 11:06:08;;;;;;;21.27;5.85;;;;;;;5.06;82.65;98284.03;5063161;28;20037;-84
2022/01/09 11:08:35;;;;;;;11.15;6.38;;;;;;;5.17;82.41;98276.78;5063597;28;20116;-85
2022/01/09 11:11:06;;;;;;;14.75;4.50;;;;;;;5.22;82.57;98284.91;5063555;28;20040;-85
2022/01/09 11:13:33;;;;;;;20.17;4.93;;;;;;;5.06;82.74;98281.34;5063835;28;20027;-85
2022/01/09 11:18:43;;;;;;;;;;;;;;;5.05;83.03;98284.28;5064927;28;20483;-84
2022/01/09 11:21:09;;;;;;;16.17;6.80;;;;;;;5.05;82.46;98295.91;5063504;28;19959;-85
2022/01/09 11:23:52;;;;;;;9.88;3.70;;;;;;;5.24;81.18;98298.97;5062378;28;20039;-85
2022/01/09 11:26:17;;;;;;;25.80;6.43;;;;;;;4.87;82.33;98302.59;5063843;28;20047;-85
2022/01/09 11:28:49;;;;;;;9.20;4.80;;;;;;;5.43;81.34;98305.78;5063505;28;20020;-84
2022/01/09 11:31:38;;;;;;;12.85;6.03;;;;;;;5.37;81.34;98318.44;5063506;28;20163;-85
2022/01/09 11:34:22;;;;;;;15.80;4.38;;;;;;;5.37;80.71;98319.25;5064293;28;20833;-85
2022/01/09 11:37:08;;;;;;;13.02;4.75;;;;;;;5.49;80.83;98321.72;5063839;28;20042;-84
2022/01/09 11:39:36;;;;;;;10.38;5.05;;;;;;;5.20;81.37;98330.31;5064338;28;20036;-85
2022/01/09 11:42:20;;;;;;;8.90;3.80;;;;;;;5.12;81.73;98333.50;5062933;28;20100;-84
2022/01/09 11:44:53;;;;;;;16.05;4.55;;;;;;;5.07;81.35;98330.75;5064677;28;20028;-85
2022/01/09 11:47:19;;;;;;;10.47;3.90;;;;;;;5.44;81.24;98332.53;5063832;28;20040;-85
2022/01/09 11:49:54;;;;;;;11.07;5.47;;;;;;;5.38;80.56;98328.19;5064737;28;20045;-84
2022/01/09 11:52:24;;;;;;;16.50;4.22;;;;;;;5.44;81.10;98337.94;5065260;28;20055;-84
2022/01/09 11:54:55;;;;;;;12.18;4.22;;;;;;;5.17;81.53;98335.41;5064410;28;20028;-84
2022/01/09 11:57:41;;;;;;;19.00;6.78;;;;;;;5.16;82.66;98334.59;5064208;28;20125;-85